Time;durP1;ratioP1;P1;durP2;ratioP2;P2;SDS_P1;SDS_P2;PMS_P1;PMS_P2;Temp;Humidity;BMP_temperature;BMP_pressure;BME280_temperature;BME280_humidity;BME280_pressure;Samples;Min_cycle;Max_cycle;Signal;HPM_P1;HPM_P2
2021/07/10 00:01:08;;;;;;;7.80;7.00;;;18.60;99.90;;;;;;5068164;28;20508;-83
2021/07/10 00:03:35;;;;;;;11.13;8.17;;;18.60;99.90;;;;;;5067089;28;20463;-84
2021/07/10 00:06:02;;;;;;;10.43;8.10;;;18.60;99.90;;;;;;5066690;28;20474;-85
2021/07/10 00:08:30;;;;;;;11.57;7.17;;;18.50;99.90;;;;;;5064810;28;20466;-84
2021/07/10 00:10:57;;;;;;;8.93;7.50;;;18.50;99.90;;;;;;5066798;28;20481;-82
2021/07/10 00:13:24;;;;;;;9.60;8.70;;;18.50;99.90;;;;;;5064135;28;20473;-83
2021/07/10 00:15:51;;;;;;;13.17;7.57;;;18.50;99.90;;;;;;5065924;28;20793;-81
2021/07/10 00:18:18;;;;;;;9.87;8.87;;;18.50;99.90;;;;;;5064607;28;20478;-84
2021/07/10 00:20:46;;;;;;;8.77;7.87;;;18.50;99.90;;;;;;5067710;28;20508;-86
2021/07/10 00:23:13;;;;;;;10.13;7.97;;;18.50;99.90;;;;;;5066533;28;20459;-85
2021/07/10 00:25:41;;;;;;;8.57;7.33;;;18.40;99.90;;;;;;5066453;28;20458;-85
2021/07/10 00:28:08;;;;;;;9.50;8.33;;;18.40;99.90;;;;;;5066960;28;20466;-83
2021/07/10 00:30:35;;;;;;;9.00;7.33;;;18.40;99.90;;;;;;5066267;28;20484;-83
2021/07/10 00:33:03;;;;;;;10.83;7.40;;;18.30;99.90;;;;;;5070134;28;20474;-82
2021/07/10 00:35:30;;;;;;;8.33;7.53;;;18.30;99.90;;;;;;5070861;28;20454;-83
2021/07/10 00:37:58;;;;;;;7.93;6.57;;;18.30;99.90;;;;;;5069989;28;20549;-83
2021/07/10 00:40:24;;;;;;;7.63;6.50;;;18.20;99.90;;;;;;5070017;28;20481;-82
2021/07/10 00:42:53;;;;;;;11.40;7.93;;;18.20;99.90;;;;;;5070033;28;20466;-82
2021/07/10 00:45:20;;;;;;;9.03;7.33;;;18.20;99.90;;;;;;5063475;28;20851;-82
2021/07/10 00:47:47;;;;;;;8.87;7.50;;;18.20;99.90;;;;;;5069119;28;20581;-86
2021/07/10 00:50:16;;;;;;;8.63;7.70;;;18.20;99.90;;;;;;5068377;28;20492;-84
2021/07/10 00:52:43;;;;;;;10.00;8.07;;;18.20;99.90;;;;;;5069225;28;20500;-85
2021/07/10 00:55:12;;;;;;;10.87;8.43;;;18.30;99.90;;;;;;5067956;28;20462;-84
2021/07/10 00:57:40;;;;;;;12.40;9.10;;;18.30;99.90;;;;;;5069510;28;20457;-83
2021/07/10 01:00:11;;;;;;;9.40;8.20;;;18.30;99.90;;;;;;5060705;28;20462;-82
2021/07/10 01:02:41;;;;;;;8.97;8.07;;;18.20;99.90;;;;;;5058441;28;20471;-83
2021/07/10 01:05:11;;;;;;;9.20;7.90;;;18.30;99.90;;;;;;5055792;28;20477;-82
2021/07/10 01:07:39;;;;;;;10.50;7.90;;;18.30;99.90;;;;;;5056388;28;20458;-85
2021/07/10 01:10:07;;;;;;;9.60;7.80;;;18.30;99.90;;;;;;5055178;28;20982;-82
2021/07/10 01:12:35;;;;;;;9.20;8.27;;;18.30;99.90;;;;;;5055223;28;20482;-85
2021/07/10 01:15:02;;;;;;;9.83;7.03;;;18.20;99.90;;;;;;5056770;28;21071;-82
2021/07/10 01:17:30;;;;;;;12.53;7.30;;;18.20;99.90;;;;;;5056900;28;20462;-82
2021/07/10 01:20:02;;;;;;;8.50;7.40;;;18.20;99.90;;;;;;5059275;28;20572;-82
2021/07/10 01:22:31;;;;;;;8.03;6.87;;;18.10;99.90;;;;;;5057883;28;20574;-82
2021/07/10 01:24:58;;;;;;;11.53;8.93;;;18.00;99.90;;;;;;5061015;28;20470;-83
2021/07/10 01:27:25;;;;;;;6.47;5.87;;;18.00;99.90;;;;;;5056563;28;20972;-83
2021/07/10 01:29:54;;;;;;;7.20;6.50;;;18.00;99.90;;;;;;5060521;28;20463;-84
2021/07/10 01:32:21;;;;;;;7.53;6.53;;;18.00;99.90;;;;;;5057306;28;20498;-82
2021/07/10 01:34:50;;;;;;;9.20;7.00;;;17.90;99.90;;;;;;5059013;28;20858;-83
2021/07/10 01:37:18;;;;;;;9.40;7.30;;;17.90;99.90;;;;;;5056102;28;20465;-82
2021/07/10 01:39:46;;;;;;;9.40;7.50;;;17.80;99.90;;;;;;5056930;28;20469;-82
2021/07/10 01:42:13;;;;;;;9.03;7.50;;;17.80;99.90;;;;;;5057229;28;20566;-83
2021/07/10 01:44:41;;;;;;;10.63;9.10;;;17.80;99.90;;;;;;5057438;28;20466;-84
2021/07/10 01:47:08;;;;;;;11.00;8.90;;;17.80;99.90;;;;;;5055001;28;20997;-83
2021/07/10 01:49:35;;;;;;;9.00;8.10;;;17.80;99.90;;;;;;5058752;28;20843;-82
2021/07/10 01:52:02;;;;;;;9.97;8.97;;;17.70;99.90;;;;;;5057913;28;20573;-83
2021/07/10 01:54:29;;;;;;;10.93;8.87;;;17.70;99.90;;;;;;5057752;28;20470;-82
2021/07/10 01:56:57;;;;;;;11.67;8.80;;;17.70;99.90;;;;;;5058380;28;20703;-83
2021/07/10 01:59:24;;;;;;;10.83;8.60;;;17.70;99.90;;;;;;5057306;28;20464;-82
2021/07/10 02:01:52;;;;;;;12.23;8.73;;;17.60;99.90;;;;;;5056953;28;21101;-82
2021/07/10 02:04:21;;;;;;;10.70;8.87;;;17.60;99.90;;;;;;5060288;28;20476;-83
2021/07/10 02:06:49;;;;;;;10.30;8.77;;;17.60;99.90;;;;;;5057172;28;20478;-82
2021/07/10 02:09:16;;;;;;;11.00;9.90;;;17.60;99.90;;;;;;5059627;28;20465;-85
2021/07/10 02:11:45;;;;;;;8.87;8.00;;;17.60;99.90;;;;;;5070066;28;20517;-85
2021/07/10 02:14:14;;;;;;;10.67;8.33;;;17.60;99.90;;;;;;5066388;28;20462;-84
2021/07/10 02:16:41;;;;;;;10.17;8.47;;;17.50;99.90;;;;;;5067213;28;20466;-84
2021/07/10 02:19:09;;;;;;;12.23;10.20;;;17.50;99.90;;;;;;5064521;28;20470;-83
2021/07/10 02:21:36;;;;;;;9.63;8.63;;;17.50;99.90;;;;;;5066933;28;20462;-83
2021/07/10 02:24:04;;;;;;;8.13;7.30;;;17.50;99.90;;;;;;5069850;28;20474;-84
2021/07/10 02:26:30;;;;;;;11.23;8.97;;;17.50;99.90;;;;;;5068236;28;20461;-84
2021/07/10 02:28:58;;;;;;;11.07;7.83;;;17.50;99.90;;;;;;5067664;28;20849;-82
2021/07/10 02:31:26;;;;;;;10.77;8.30;;;17.40;99.90;;;;;;5065242;28;20492;-84
2021/07/10 02:33:53;;;;;;;12.00;8.83;;;17.40;99.90;;;;;;5066612;28;20469;-83
2021/07/10 02:36:20;;;;;;;9.20;7.40;;;17.40;99.90;;;;;;5066577;28;20462;-83
2021/07/10 02:38:47;;;;;;;8.97;7.70;;;17.30;99.90;;;;;;5068793;28;20838;-82
2021/07/10 02:41:14;;;;;;;8.97;6.90;;;17.30;99.90;;;;;;5068214;28;20465;-83
2021/07/10 02:43:41;;;;;;;8.70;7.80;;;17.30;99.90;;;;;;5066076;28;20461;-82
2021/07/10 02:46:08;;;;;;;10.30;8.50;;;17.30;99.90;;;;;;5067580;28;20497;-83
2021/07/10 02:48:37;;;;;;;9.67;8.10;;;17.30;99.90;;;;;;5067301;28;20509;-82
2021/07/10 02:51:04;;;;;;;10.73;8.30;;;17.30;99.90;;;;;;5062236;28;20471;-83
2021/07/10 02:53:31;;;;;;;8.80;7.43;;;17.20;99.90;;;;;;5062152;28;20752;-86
2021/07/10 02:55:58;;;;;;;8.73;7.70;;;17.20;99.90;;;;;;5065692;28;20470;-83
2021/07/10 02:58:25;;;;;;;9.17;7.70;;;17.20;99.90;;;;;;5063796;28;20497;-83
2021/07/10 03:00:52;;;;;;;11.17;8.60;;;17.20;99.90;;;;;;5063151;28;20472;-82
2021/07/10 03:03:19;;;;;;;8.47;7.60;;;17.10;99.90;;;;;;5063450;28;20911;-85
2021/07/10 03:05:48;;;;;;;10.70;8.00;;;17.10;99.90;;;;;;5065508;28;20551;-86
2021/07/10 03:08:15;;;;;;;10.57;9.43;;;17.10;99.90;;;;;;5067547;28;20457;-85
2021/07/10 03:10:43;;;;;;;11.03;7.80;;;17.00;99.90;;;;;;5063648;28;20461;-83
2021/07/10 03:13:11;;;;;;;12.70;8.40;;;17.00;99.90;;;;;;5065129;28;21086;-85
2021/07/10 03:15:38;;;;;;;9.57;8.53;;;17.00;99.90;;;;;;5061539;28;20555;-82
2021/07/10 03:18:06;;;;;;;9.33;8.37;;;17.00;99.90;;;;;;5067312;28;20467;-86
2021/07/10 03:20:33;;;;;;;9.70;8.70;;;17.00;99.90;;;;;;5061273;28;20467;-83
2021/07/10 03:23:01;;;;;;;12.13;8.50;;;17.00;99.90;;;;;;5061100;28;20467;-82
2021/07/10 03:25:28;;;;;;;9.83;8.83;;;17.00;99.90;;;;;;5057724;28;20476;-83
2021/07/10 03:27:57;;;;;;;11.23;8.30;;;17.10;99.90;;;;;;5057007;28;20473;-82
2021/07/10 03:30:26;;;;;;;11.10;8.33;;;17.10;99.90;;;;;;5061691;28;20480;-83
2021/07/10 03:32:53;;;;;;;15.43;8.23;;;17.10;99.90;;;;;;5055310;28;20489;-86
2021/07/10 03:35:21;;;;;;;10.20;8.77;;;17.10;99.90;;;;;;5060209;28;20467;-83
2021/07/10 03:37:49;;;;;;;9.57;8.53;;;17.20;99.90;;;;;;5058056;28;20975;-83
2021/07/10 03:40:20;;;;;;;9.60;8.60;;;17.20;99.90;;;;;;5058314;28;20542;-82
2021/07/10 03:42:47;;;;;;;9.30;8.10;;;17.30;99.90;;;;;;5056764;28;21132;-83
2021/07/10 03:45:15;;;;;;;11.33;8.20;;;17.30;99.90;;;;;;5060833;28;20495;-83
2021/07/10 03:47:43;;;;;;;8.73;7.83;;;17.30;99.90;;;;;;5071449;28;20609;-83
2021/07/10 03:50:13;;;;;;;9.83;8.93;;;17.30;99.90;;;;;;5070609;28;20635;-83
2021/07/10 03:52:40;;;;;;;8.63;7.83;;;17.30;99.90;;;;;;5072787;28;20496;-85
2021/07/10 03:55:11;;;;;;;10.60;7.70;;;17.30;99.90;;;;;;5068531;28;20468;-82
2021/07/10 03:57:39;;;;;;;8.80;7.90;;;17.30;99.90;;;;;;5069293;28;20524;-82
2021/07/10 04:00:10;;;;;;;10.57;7.80;;;17.30;99.90;;;;;;5073037;28;20464;-85
2021/07/10 04:02:37;;;;;;;9.40;8.37;;;17.30;99.90;;;;;;5076155;28;20488;-83
2021/07/10 04:05:05;;;;;;;11.20;8.33;;;17.40;99.90;;;;;;5071494;28;20480;-83
2021/07/10 04:07:33;;;;;;;9.50;8.50;;;17.40;99.90;;;;;;5065062;28;20883;-83
2021/07/10 04:10:00;;;;;;;8.70;7.80;;;17.40;99.90;;;;;;5069471;28;20560;-83
2021/07/10 04:12:27;;;;;;;12.80;7.90;;;17.50;99.90;;;;;;5066179;28;20566;-85
2021/07/10 04:15:00;;;;;;;12.03;8.93;;;17.50;99.90;;;;;;5073537;28;20466;-84
2021/07/10 04:17:28;;;;;;;11.90;8.30;;;17.50;99.90;;;;;;5070521;28;20867;-83
2021/07/10 04:19:55;;;;;;;11.43;9.60;;;17.60;99.90;;;;;;5065907;28;20471;-82
2021/07/10 04:22:22;;;;;;;10.37;8.10;;;17.70;99.90;;;;;;5069524;28;20474;-84
2021/07/10 04:24:49;;;;;;;11.93;9.00;;;17.70;99.90;;;;;;5068469;28;20465;-85
2021/07/10 04:27:17;;;;;;;11.00;8.90;;;17.80;99.90;;;;;;5068690;28;20477;-84
2021/07/10 04:29:45;;;;;;;11.80;9.10;;;17.90;99.90;;;;;;5067548;28;20467;-83
2021/07/10 04:32:13;;;;;;;15.83;9.97;;;17.90;99.90;;;;;;5065824;28;20521;-83
2021/07/10 04:34:41;;;;;;;16.70;10.57;;;18.00;99.90;;;;;;5068443;28;20712;-84
2021/07/10 04:37:08;;;;;;;14.47;8.70;;;18.10;99.90;;;;;;5071303;28;20467;-83
2021/07/10 04:39:35;;;;;;;9.13;8.23;;;18.10;99.90;;;;;;5069292;28;20466;-83
2021/07/10 04:42:02;;;;;;;10.23;8.83;;;18.10;99.90;;;;;;5069868;28;20556;-85
2021/07/10 04:44:29;;;;;;;14.30;9.23;;;18.20;99.90;;;;;;5069880;28;20469;-83
2021/07/10 04:46:56;;;;;;;11.70;9.53;;;18.20;99.90;;;;;;5070059;28;20929;-84
2021/07/10 04:49:25;;;;;;;11.10;9.70;;;18.20;99.90;;;;;;5068160;28;20464;-83
2021/07/10 04:51:51;;;;;;;11.07;8.20;;;18.20;99.90;;;;;;5070433;28;20548;-83
2021/07/10 04:54:18;;;;;;;17.23;9.67;;;18.20;99.90;;;;;;5069697;28;20465;-85
2021/07/10 04:56:45;;;;;;;11.50;8.90;;;18.20;99.90;;;;;;5069810;28;20853;-83
2021/07/10 04:59:12;;;;;;;14.33;9.40;;;18.30;99.90;;;;;;5069393;28;20989;-82
2021/07/10 05:01:39;;;;;;;11.40;8.63;;;18.30;99.90;;;;;;5069623;28;20858;-84
2021/07/10 05:04:06;;;;;;;12.40;8.80;;;18.30;99.90;;;;;;5068953;28;20467;-84
2021/07/10 05:06:34;;;;;;;15.30;9.90;;;18.30;99.90;;;;;;5067053;28;20472;-83
2021/07/10 05:09:01;;;;;;;10.60;9.50;;;18.40;99.90;;;;;;5069546;28;20474;-82
2021/07/10 05:11:28;;;;;;;13.43;9.57;;;18.40;99.90;;;;;;5069338;28;21012;-83
2021/07/10 05:13:55;;;;;;;13.63;9.27;;;18.40;99.90;;;;;;5069071;28;20498;-83
2021/07/10 05:16:22;;;;;;;9.37;8.33;;;18.50;99.90;;;;;;5069918;28;20458;-82
2021/07/10 05:18:49;;;;;;;10.67;8.13;;;18.50;99.90;;;;;;5069155;28;20477;-83
2021/07/10 05:21:16;;;;;;;14.13;9.73;;;18.50;99.90;;;;;;5069463;28;20481;-82
2021/07/10 05:23:44;;;;;;;10.73;8.70;;;18.60;99.90;;;;;;5065457;28;20458;-83
2021/07/10 05:26:11;;;;;;;12.77;10.43;;;18.60;99.90;;;;;;5068213;28;20485;-83
2021/07/10 05:28:38;;;;;;;11.20;8.67;;;18.60;99.90;;;;;;5069808;28;20462;-85
2021/07/10 05:31:05;;;;;;;9.97;8.50;;;18.70;99.90;;;;;;5070161;28;20468;-82
2021/07/10 05:33:32;;;;;;;10.90;8.20;;;18.70;99.90;;;;;;5068750;28;20498;-83
2021/07/10 05:35:59;;;;;;;14.33;10.00;;;18.80;99.90;;;;;;5069124;28;20465;-83
2021/07/10 05:38:26;;;;;;;14.13;9.30;;;18.80;99.90;;;;;;5068965;28;20467;-83
2021/07/10 05:40:54;;;;;;;11.07;9.90;;;18.90;99.90;;;;;;5068533;28;20587;-83
2021/07/10 05:43:24;;;;;;;10.00;9.10;;;18.90;99.90;;;;;;5069319;28;20828;-83
2021/07/10 05:45:51;;;;;;;16.93;9.23;;;19.00;99.90;;;;;;5063572;28;20835;-84
2021/07/10 05:48:18;;;;;;;11.00;7.90;;;19.00;99.90;;;;;;5067165;28;20478;-84
2021/07/10 05:50:45;;;;;;;9.63;8.53;;;19.10;99.90;;;;;;5064189;28;20462;-85
2021/07/10 05:53:12;;;;;;;12.90;9.20;;;19.20;99.90;;;;;;5064896;28;20483;-82
2021/07/10 05:55:39;;;;;;;18.03;9.80;;;19.20;99.90;;;;;;5066486;28;20471;-83
2021/07/10 05:58:08;;;;;;;10.23;9.20;;;19.30;99.90;;;;;;5064818;28;20467;-83
2021/07/10 06:00:35;;;;;;;16.33;10.93;;;19.30;99.90;;;;;;5061264;28;20458;-83
2021/07/10 06:03:02;;;;;;;14.50;8.70;;;19.40;99.90;;;;;;5063349;28;20462;-85
2021/07/10 06:05:29;;;;;;;15.13;8.73;;;19.40;99.90;;;;;;5063527;28;20461;-83
2021/07/10 06:07:57;;;;;;;11.70;9.83;;;19.50;99.90;;;;;;5062088;28;20467;-82
2021/07/10 06:10:23;;;;;;;15.03;8.93;;;19.50;99.90;;;;;;5064779;28;20462;-83
2021/07/10 06:12:51;;;;;;;10.87;8.60;;;19.60;99.90;;;;;;5063859;28;20565;-83
2021/07/10 06:15:20;;;;;;;11.77;9.30;;;19.60;99.90;;;;;;5060465;28;21271;-84
2021/07/10 06:17:47;;;;;;;11.40;8.80;;;19.60;99.90;;;;;;5067794;28;20471;-83
2021/07/10 06:20:16;;;;;;;11.40;8.93;;;19.70;99.90;;;;;;5065607;28;20463;-83
2021/07/10 06:22:45;;;;;;;10.20;8.93;;;19.70;99.90;;;;;;5061129;28;20459;-84
2021/07/10 06:25:14;;;;;;;11.13;9.00;;;19.70;99.90;;;;;;5066075;28;20984;-72
2021/07/10 06:27:41;;;;;;;12.73;8.90;;;19.80;99.90;;;;;;5066588;28;20537;-72
2021/07/10 06:30:10;;;;;;;12.43;8.57;;;19.90;99.90;;;;;;5064569;28;21282;-72
2021/07/10 06:32:39;;;;;;;15.53;9.60;;;19.90;99.90;;;;;;5062519;28;20486;-72
2021/07/10 06:35:08;;;;;;;11.43;9.00;;;19.90;99.90;;;;;;5065712;28;20458;-72
2021/07/10 06:37:35;;;;;;;9.50;8.30;;;20.00;99.90;;;;;;5067558;28;20970;-72
2021/07/10 06:40:02;;;;;;;12.83;9.00;;;20.10;99.90;;;;;;5066374;28;20466;-72
2021/07/10 06:42:29;;;;;;;9.17;7.30;;;20.10;99.90;;;;;;5066761;28;20470;-72
2021/07/10 06:44:56;;;;;;;13.07;7.60;;;20.20;99.90;;;;;;5070092;28;20490;-72
2021/07/10 06:47:23;;;;;;;11.50;7.70;;;20.20;99.90;;;;;;5088112;28;20486;-72
2021/07/10 06:49:51;;;;;;;9.37;7.37;;;20.30;99.90;;;;;;5087657;28;20871;-72
2021/07/10 06:52:18;;;;;;;8.13;7.30;;;20.30;99.90;;;;;;5086641;28;20480;-72
2021/07/10 06:54:44;;;;;;;9.93;6.73;;;20.30;99.90;;;;;;5083876;28;20544;-72
2021/07/10 06:57:11;;;;;;;6.90;6.20;;;20.40;99.90;;;;;;5087525;28;20472;-72
2021/07/10 06:59:38;;;;;;;7.80;6.27;;;20.50;99.90;;;;;;5087277;28;20979;-72
2021/07/10 07:02:06;;;;;;;8.40;7.13;;;20.50;99.90;;;;;;5083450;28;20462;-72
2021/07/10 07:04:32;;;;;;;14.40;7.60;;;20.60;99.90;;;;;;5085809;28;20470;-72
2021/07/10 07:07:01;;;;;;;13.07;7.30;;;20.60;99.90;;;;;;5087153;28;20461;-72
2021/07/10 07:09:28;;;;;;;7.83;6.83;;;20.70;99.90;;;;;;5086960;28;20515;-72
2021/07/10 07:11:55;;;;;;;10.53;6.70;;;20.80;99.90;;;;;;5087123;28;20467;-72
2021/07/10 07:14:21;;;;;;;8.10;7.30;;;20.90;99.90;;;;;;5086697;28;20496;-73
2021/07/10 07:16:48;;;;;;;9.60;7.37;;;20.90;99.90;;;;;;5087966;28;20458;-72
2021/07/10 07:19:15;;;;;;;7.83;6.90;;;21.00;99.90;;;;;;5087325;28;20453;-72
2021/07/10 07:21:42;;;;;;;9.70;6.27;;;21.10;99.90;;;;;;5086884;28;20473;-72
2021/07/10 07:24:10;;;;;;;7.77;6.30;;;21.20;99.90;;;;;;5083604;28;20460;-72
2021/07/10 07:26:37;;;;;;;9.50;6.67;;;21.20;99.90;;;;;;5086962;28;20466;-85
2021/07/10 07:29:05;;;;;;;7.60;6.73;;;21.30;99.90;;;;;;5087274;28;21024;-85
2021/07/10 07:31:32;;;;;;;6.57;5.70;;;21.40;99.90;;;;;;5088711;28;20464;-83
2021/07/10 07:33:59;;;;;;;9.10;6.10;;;21.50;99.90;;;;;;5083276;28;20485;-82
2021/07/10 07:36:26;;;;;;;9.80;6.20;;;21.60;99.90;;;;;;5084123;28;20548;-83
2021/07/10 07:38:52;;;;;;;11.50;6.10;;;21.60;99.90;;;;;;5080692;28;20462;-83
2021/07/10 07:41:21;;;;;;;7.83;5.97;;;21.70;99.90;;;;;;5089388;28;20493;-83
2021/07/10 07:43:48;;;;;;;9.17;6.60;;;21.80;99.90;;;;;;5090570;28;20997;-85
2021/07/10 07:46:15;;;;;;;7.93;7.13;;;21.80;99.90;;;;;;5088156;28;20518;-85
2021/07/10 07:48:43;;;;;;;8.87;7.33;;;21.80;99.90;;;;;;5091186;28;20481;-83
2021/07/10 07:51:10;;;;;;;9.90;6.90;;;21.90;99.90;;;;;;5091302;28;20469;-83
2021/07/10 07:53:37;;;;;;;8.00;6.70;;;21.90;99.90;;;;;;5085960;28;20483;-85
2021/07/10 07:56:05;;;;;;;7.23;5.93;;;22.00;99.90;;;;;;5090719;28;20544;-83
2021/07/10 07:58:33;;;;;;;11.07;6.40;;;22.00;99.90;;;;;;5086717;28;20462;-85
2021/07/10 08:01:00;;;;;;;9.10;6.03;;;22.10;99.90;;;;;;5069475;28;20465;-85
2021/07/10 08:03:27;;;;;;;8.83;5.63;;;22.10;99.90;;;;;;5069256;28;20477;-83
2021/07/10 08:05:54;;;;;;;9.80;6.70;;;22.20;99.90;;;;;;5068931;28;20500;-83
2021/07/10 08:08:21;;;;;;;5.97;5.37;;;22.20;99.90;;;;;;5080151;28;20567;-83
2021/07/10 08:10:47;;;;;;;6.70;6.00;;;22.30;99.90;;;;;;5082411;28;20493;-82
2021/07/10 08:13:15;;;;;;;15.10;6.70;;;22.40;99.90;;;;;;5078168;28;20481;-83
2021/07/10 08:15:43;;;;;;;8.03;5.80;;;22.40;99.90;;;;;;5084888;28;20475;-83
2021/07/10 08:18:10;;;;;;;6.90;5.30;;;22.50;99.90;;;;;;5084746;28;20458;-85
2021/07/10 08:20:37;;;;;;;6.93;5.30;;;22.50;99.90;;;;;;5080564;28;20470;-83
2021/07/10 08:23:05;;;;;;;7.47;6.43;;;22.60;99.90;;;;;;5078778;28;20960;-83
2021/07/10 08:25:32;;;;;;;7.73;6.53;;;22.60;99.90;;;;;;5079013;28;20802;-86
2021/07/10 08:28:00;;;;;;;6.27;5.60;;;22.70;99.90;;;;;;5083734;28;20457;-86
2021/07/10 08:30:27;;;;;;;5.43;4.50;;;22.70;99.90;;;;;;5084412;28;20480;-82
2021/07/10 08:32:56;;;;;;;10.90;6.10;;;22.80;99.90;;;;;;5082070;28;20461;-84
2021/07/10 08:35:22;;;;;;;8.40;6.30;;;22.80;99.90;;;;;;5083395;28;20470;-85
2021/07/10 08:37:50;;;;;;;7.97;5.20;;;22.80;99.90;;;;;;5083462;28;21042;-84
2021/07/10 08:40:18;;;;;;;6.57;5.60;;;22.90;99.90;;;;;;5084946;28;20464;-85
2021/07/10 08:42:45;;;;;;;6.97;6.27;;;23.00;99.90;;;;;;5083824;28;20564;-86
2021/07/10 08:45:14;;;;;;;9.03;5.87;;;23.00;99.90;;;;;;5078546;28;20486;-86
2021/07/10 08:47:42;;;;;;;8.03;7.10;;;23.00;99.90;;;;;;5079519;28;20481;-84
2021/07/10 08:50:12;;;;;;;7.10;6.40;;;23.10;99.90;;;;;;5081142;28;20468;-83
2021/07/10 08:52:39;;;;;;;10.93;6.80;;;23.10;99.90;;;;;;5078694;28;20487;-83
2021/07/10 08:55:08;;;;;;;11.10;6.33;;;23.20;99.90;;;;;;5084705;28;20493;-83
2021/07/10 08:57:36;;;;;;;7.70;6.40;;;23.20;99.90;;;;;;5084592;28;20461;-83
2021/07/10 09:00:06;;;;;;;8.10;6.47;;;23.20;99.90;;;;;;5081186;28;20536;-86
2021/07/10 09:02:34;;;;;;;7.60;6.90;;;23.30;99.90;;;;;;5080413;28;20965;-82
2021/07/10 09:05:01;;;;;;;8.30;6.30;;;23.30;99.90;;;;;;5079485;28;20466;-84
2021/07/10 09:07:29;;;;;;;7.40;6.63;;;23.30;99.90;;;;;;5081244;28;20564;-83
2021/07/10 09:09:57;;;;;;;8.60;6.93;;;23.30;99.90;;;;;;5080306;28;20466;-84
2021/07/10 09:12:30;;;;;;;12.10;6.60;;;23.40;99.90;;;;;;5083808;28;20881;-83
2021/07/10 09:15:17;;;;;;;9.13;6.87;;;23.40;99.90;;;;;;5084105;28;20530;-85
2021/07/10 09:17:45;;;;;;;7.80;6.57;;;23.40;99.90;;;;;;5082993;28;20797;-83
2021/07/10 09:20:21;;;;;;;7.67;6.77;;;23.40;99.90;;;;;;5082960;28;20473;-83
2021/07/10 09:22:50;;;;;;;11.13;7.60;;;23.40;99.90;;;;;;5083177;28;20569;-83
2021/07/10 09:25:24;;;;;;;7.57;6.20;;;23.50;99.90;;;;;;5082779;28;20485;-83
2021/07/10 09:27:52;;;;;;;7.27;6.10;;;23.50;99.90;;;;;;5084673;28;20821;-83
2021/07/10 09:30:31;;;;;;;10.67;6.00;;;23.60;99.90;;;;;;5083514;28;20573;-86
2021/07/10 09:33:14;;;;;;;9.63;6.80;;;23.60;99.90;;;;;;5081101;28;20469;-86
2021/07/10 09:35:55;;;;;;;7.50;6.80;;;23.70;99.90;;;;;;5086357;28;20470;-83
2021/07/10 09:38:27;;;;;;;8.00;6.50;;;23.70;99.90;;;;;;5087372;28;20476;-83
2021/07/10 09:41:04;;;;;;;6.63;5.93;;;23.70;99.90;;;;;;5083276;28;20468;-83
2021/07/10 09:43:32;;;;;;;9.10;6.80;;;23.70;99.90;;;;;;5078142;28;20825;-85
2021/07/10 09:46:02;;;;;;;9.50;6.73;;;23.70;99.90;;;;;;5081256;28;20562;-83
2021/07/10 09:48:30;;;;;;;8.73;7.53;;;23.70;99.90;;;;;;5083727;28;20482;-86
2021/07/10 09:51:24;;;;;;;9.00;6.37;;;23.70;99.90;;;;;;5084030;28;20473;-83
2021/07/10 09:54:07;;;;;;;7.97;6.60;;;23.70;99.90;;;;;;5033693;28;21019;-83
2021/07/10 09:56:36;;;;;;;7.10;6.27;;;23.70;99.90;;;;;;5081488;28;20462;-83
2021/07/10 09:59:19;;;;;;;11.53;7.17;;;23.70;99.90;;;;;;5081906;28;20465;-83
2021/07/10 10:01:48;;;;;;;10.47;6.97;;;23.70;99.90;;;;;;5080728;28;20520;-83
2021/07/10 10:04:24;;;;;;;7.37;6.67;;;23.70;99.90;;;;;;5081218;28;20466;-83
2021/07/10 10:06:52;;;;;;;6.73;6.13;;;23.70;99.90;;;;;;5081513;28;20469;-83
2021/07/10 10:09:22;;;;;;;8.90;6.50;;;23.70;99.90;;;;;;5081928;28;20466;-83
2021/07/10 10:11:59;;;;;;;6.73;5.40;;;23.70;99.90;;;;;;5082332;28;20485;-83
2021/07/10 10:14:27;;;;;;;7.37;6.50;;;23.80;99.90;;;;;;5080713;28;20488;-82
2021/07/10 10:16:54;;;;;;;6.37;5.77;;;23.80;99.90;;;;;;5082394;28;20454;-84
2021/07/10 10:19:23;;;;;;;6.43;5.80;;;23.90;99.90;;;;;;5083573;28;20877;-84
2021/07/10 10:21:52;;;;;;;6.27;5.77;;;23.90;99.90;;;;;;5081389;28;20473;-85
2021/07/10 10:24:30;;;;;;;10.73;6.40;;;23.90;99.90;;;;;;5058679;27;21219;-63
2021/07/10 10:26:58;;;;;;;7.17;5.70;;;23.90;99.90;;;;;;5052660;28;20740;-63
2021/07/10 10:29:27;;;;;;;6.73;5.93;;;23.90;99.90;;;;;;5055906;28;20454;-63
2021/07/10 10:31:56;;;;;;;6.67;6.07;;;24.00;99.90;;;;;;5054045;28;21107;-64
2021/07/10 10:34:23;;;;;;;7.00;5.60;;;24.10;99.90;;;;;;5049675;28;20471;-63
2021/07/10 10:36:53;;;;;;;6.50;5.20;;;24.10;99.90;;;;;;5050663;28;20465;-63
2021/07/10 10:39:21;;;;;;;5.50;4.93;;;24.10;99.90;;;;;;5052148;28;20468;-63
2021/07/10 10:41:51;;;;;;;6.70;6.00;;;24.20;99.90;;;;;;5049552;28;21160;-64
2021/07/10 10:44:18;;;;;;;5.33;4.83;;;24.20;99.90;;;;;;5056544;28;20482;-64
2021/07/10 10:46:52;;;;;;;6.53;4.57;;;24.30;99.90;;;;;;5049642;28;20473;-62
2021/07/10 10:49:41;;;;;;;4.60;4.20;;;24.40;99.90;;;;;;5043848;28;20467;-61
2021/07/10 10:52:41;;;;;;;4.97;4.33;;;24.40;99.90;;;;;;5045003;28;21125;-62
2021/07/10 10:55:11;;;;;;;5.83;4.47;;;24.40;99.90;;;;;;5040788;28;20463;-61
2021/07/10 10:57:48;;;;;;;5.07;4.53;;;24.40;99.90;;;;;;5051669;28;20501;-64
2021/07/10 11:00:20;;;;;;;4.97;4.10;;;24.40;99.90;;;;;;5048089;28;20474;-62
2021/07/10 11:03:04;;;;;;;7.70;4.53;;;24.50;99.90;;;;;;5051073;28;20481;-64
2021/07/10 11:05:43;;;;;;;5.33;4.80;;;24.60;99.90;;;;;;5053327;28;20463;-64
2021/07/10 11:08:37;;;;;;;5.10;4.60;;;24.70;99.90;;;;;;5050822;28;20814;-64
2021/07/10 11:11:26;;;;;;;5.43;4.73;;;24.80;99.90;;;;;;5055845;28;20454;-63
2021/07/10 11:14:15;;;;;;;7.13;4.63;;;25.10;99.90;;;;;;5049835;28;20558;-63
2021/07/10 11:17:20;;;;;;;4.97;4.33;;;25.20;99.90;;;;;;5045892;28;20546;-63
2021/07/10 11:19:52;;;;;;;4.00;3.60;;;25.30;99.90;;;;;;5047741;28;20591;-63
2021/07/10 11:22:56;;;;;;;3.90;3.60;;;25.40;99.90;;;;;;5050456;28;20462;-64
2021/07/10 11:26:06;;;;;;;4.60;3.80;;;25.60;99.90;;;;;;5048674;28;20529;-64
2021/07/10 11:28:35;;;;;;;5.93;4.27;;;25.70;99.90;;;;;;5050605;28;21038;-64
2021/07/10 11:31:06;;;;;;;5.80;4.00;;;25.80;99.90;;;;;;5044776;28;20804;-63
2021/07/10 11:34:00;;;;;;;4.37;3.97;;;25.80;99.90;;;;;;5052011;28;20477;-64
2021/07/10 11:36:47;;;;;;;4.73;4.33;;;25.80;99.90;;;;;;5032071;28;20463;-64
2021/07/10 11:39:49;;;;;;;4.40;3.67;;;25.90;99.90;;;;;;5039589;28;20471;-64
2021/07/10 11:42:44;;;;;;;4.00;3.50;;;26.00;99.90;;;;;;5035527;28;20470;-64
2021/07/10 11:45:29;;;;;;;5.73;3.87;;;26.10;99.90;;;;;;5030807;28;20479;-64
2021/07/10 11:48:13;;;;;;;4.70;3.40;;;26.20;99.90;;;;;;5039174;28;20471;-64
2021/07/10 11:50:41;;;;;;;4.43;3.50;;;26.30;99.90;;;;;;5034904;28;20464;-64
2021/07/10 11:53:09;;;;;;;5.10;4.60;;;26.30;99.90;;;;;;5031981;28;20468;-64
2021/07/10 11:55:39;;;;;;;6.60;4.80;;;26.40;99.90;;;;;;5036849;28;20483;-64
2021/07/10 11:58:08;;;;;;;4.10;3.80;;;26.40;99.90;;;;;;5033686;28;20472;-64
2021/07/10 12:00:35;;;;;;;5.27;3.97;;;26.40;99.90;;;;;;5039319;28;20464;-64
2021/07/10 12:03:03;;;;;;;5.40;4.13;;;26.30;99.90;;;;;;5037990;28;20650;-63
2021/07/10 12:05:33;;;;;;;6.07;4.10;;;26.30;99.90;;;;;;5033406;28;20464;-64
2021/07/10 12:08:03;;;;;;;3.90;3.60;;;26.20;99.90;;;;;;5035812;28;20517;-64
2021/07/10 12:10:34;;;;;;;4.50;4.10;;;26.20;99.90;;;;;;5037782;28;20468;-63
2021/07/10 12:13:03;;;;;;;4.30;3.70;;;26.10;99.90;;;;;;5034312;28;20826;-64
2021/07/10 12:15:32;;;;;;;4.27;3.90;;;26.00;99.90;;;;;;5036859;28;20459;-63
2021/07/10 12:18:00;;;;;;;5.00;3.67;;;25.90;99.90;;;;;;5038456;28;20469;-64
2021/07/10 12:20:32;;;;;;;4.17;3.77;;;25.90;99.90;;;;;;5035563;28;20459;-64
2021/07/10 12:23:02;;;;;;;4.63;3.80;;;25.90;99.90;;;;;;5037888;28;20495;-63
2021/07/10 12:25:31;;;;;;;4.50;4.10;;;25.90;99.90;;;;;;5030005;28;20998;-63
2021/07/10 12:28:02;;;;;;;5.10;3.97;;;25.90;99.90;;;;;;5035577;28;20466;-63
2021/07/10 12:30:45;;;;;;;5.90;4.53;;;25.90;99.90;;;;;;5035369;28;21030;-64
2021/07/10 12:33:46;;;;;;;4.20;3.70;;;25.90;99.90;;;;;;5037543;28;20459;-64
2021/07/10 12:36:22;;;;;;;5.73;4.20;;;25.90;99.90;;;;;;5030011;28;20475;-64
2021/07/10 12:39:12;;;;;;;7.63;4.57;;;26.00;99.90;;;;;;5034769;28;20796;-63
2021/07/10 12:41:48;;;;;;;6.63;4.40;;;26.00;99.90;;;;;;5032405;28;20663;-64
2021/07/10 12:44:21;;;;;;;6.10;4.17;;;26.00;99.90;;;;;;5041609;28;20483;-64
2021/07/10 12:47:07;;;;;;;5.47;4.40;;;26.10;99.90;;;;;;5037792;28;20542;-64
2021/07/10 12:49:37;;;;;;;4.50;3.67;;;26.20;99.90;;;;;;5032719;28;20464;-64
2021/07/10 12:52:09;;;;;;;5.80;4.40;;;26.30;99.90;;;;;;5034362;28;20498;-64
2021/07/10 12:54:43;;;;;;;5.00;4.00;;;26.30;99.90;;;;;;5034205;28;20949;-64
2021/07/10 12:57:20;;;;;;;5.00;4.10;;;26.40;99.90;;;;;;5038092;28;20816;-62